Observations for Trim Patrick St
| Time | AQI | Temp °C | Hum % | Pres Pa | CO μg/m³ | H₂S μg/m³ | NO μg/m³ | NO₂ μg/m³ | O₃ μg/m³ | SO₂ μg/m³ | PM1 μg/m³ | PM2.5 μg/m³ | PM10 μg/m³ |
|---|---|---|---|---|---|---|---|---|---|---|---|---|---|
| Friday 7 August 2026 | |||||||||||||
| 10:51 | 1 | 27.7 | 38 | 68,991 | 0 | 0 | 1.14 | 6.98 | 60.91 | 8.55 | 2.86 | 8.75 | 9.63 |
| 10:50 | 1 | 27.7 | 39 | 69,008 | 0 | 0 | 1.12 | 4.12 | 48.94 | 9.29 | 2.86 | 9.49 | 10.44 |
| 10:49 | 1 | 27.7 | 38 | 69,006 | 0 | 0 | 1.13 | 9.59 | 59.63 | 8.35 | 2.86 | 8.74 | 9.61 |
| 10:46 | 1 | 27.5 | 39 | 68,993 | 0 | 0 | 1.14 | 7.7 | 51.92 | 8.1 | 2.86 | 8.71 | 9.58 |
| 10:45 | 1 | 27.4 | 41 | 69,010 | 0 | 0 | 1.14 | 7.77 | 51.19 | 8.9 | 3.71 | 10.1 | 11.11 |
| 10:41 | 1 | 26.8 | 40 | 68,985 | 0 | 0 | 1.28 | 9.86 | 55.32 | 6.68 | 3.71 | 10.93 | 12.02 |
| 10:40 | 1 | 26.7 | 42 | 68,999 | 0 | 0 | 1.26 | 10.23 | 67.08 | 9.4 | 3.71 | 9.22 | 10.15 |
| 10:39 | 1 | 26.6 | 44 | 68,983 | 0 | 0 | 1.26 | 9.55 | 55.06 | 7.34 | 2.86 | 8.35 | 9.19 |
| 10:38 | 1 | 26.5 | 43 | 68,967 | 0 | 0 | 1.28 | 19.54 | 68.44 | 6.89 | 2.86 | 8.41 | 9.25 |
| 10:37 | 1 | 26.4 | 42 | 68,971 | 0 | 0 | 1.35 | 9.92 | 65.44 | 7.09 | 3.71 | 8.47 | 9.32 |
| 10:36 | 1 | 26.3 | 45 | 68,979 | 0 | 0 | 1.32 | 6.09 | 62.65 | 8.31 | 3.71 | 9.03 | 9.93 |
| 10:34 | 1 | 26.1 | 45 | 68,943 | 0 | 0 | 1.37 | 10.16 | 65.94 | 8.35 | 3.71 | 8.29 | 9.12 |
| 10:33 | 1 | 26 | 42 | 68,947 | 0 | 0 | 1.48 | 9.01 | 62.58 | 7.61 | 3.71 | 10 | 11 |
| 10:32 | 1 | 26 | 42 | 68,951 | 0 | 0 | 1.44 | 8.65 | 66.36 | 7.62 | 2.86 | 8.44 | 9.29 |
| 10:31 | 1 | 26 | 43 | 68,957 | 0 | 0 | 1.43 | 8.56 | 56.59 | 7.42 | 3.71 | 9.96 | 10.96 |
| 10:30 | 1 | 26 | 45 | 68,969 | 0 | 0 | 1.38 | 5.74 | 64.74 | 7.6 | 2 | 6.75 | 7.43 |
| 10:29 | 1 | 26 | 43 | 68,983 | 0 | 0 | 1.48 | 7.81 | 65.95 | 6.73 | 3.71 | 9.99 | 10.99 |
| 10:28 | 1 | 26.1 | 43 | 68,971 | 0 | 0 | 1.48 | 7.66 | 61.71 | 8.07 | 3.71 | 9.19 | 10.11 |
| 10:27 | 1 | 26.2 | 43 | 68,989 | 0 | 0 | 1.42 | 7.15 | 54.66 | 7.6 | 2.86 | 9.2 | 10.12 |
| 10:26 | 1 | 26.3 | 42 | 68,977 | 0 | 0 | 1.46 | 7.2 | 54.75 | 7.24 | 3.71 | 9.28 | 10.21 |